Latest Weather Observations for Bankstown

IDN60801

Issued at 4:32 am EDT Thursday 2 March 2017 (issued every 30 minutes, with the page automatically refreshed every 10 minutes)

About weather observations | Map of weather stations | Latest weather observations for NSW | Other Formats
Station Details ID: 066137 Name: BANKSTOWN AIRPORT AWS Lat: -33.92 Lon: 150.99 Height: 6.5 m
Data from the previous 72 hours. | See also: Recent months at Bankstown
Date/Time
EDT
Temp
°C
App
Temp
°C
Dew
Point
°C
Rel
Hum
%
Delta-T
°C
Wind Press
QNH
hPa
Press
MSL
hPa
Rain since
9am
mm
Dir  Spd
km/h
Gust
km/h
Spd
kts
Gust
kts
02/04:30am 20.5 23.0 19.8 96 0.4 SW 6 7 3 4 1017.6 1017.6 5.0
02/04:00am 20.0 23.3 19.2 95 0.5 CALM 0 0 0 0 1017.6 1017.6 5.0
02/03:30am 20.3 23.7 19.3 94 0.6 CALM 0 0 0 0 1017.7 1017.7 5.0
02/03:00am 20.5 24.0 19.5 94 0.6 CALM 0 0 0 0 1017.8 1017.8 5.0
02/02:30am 20.5 24.0 19.5 94 0.6 CALM 0 0 0 0 1018.2 1018.2 5.0
02/02:00am 20.7 23.9 19.7 94 0.6 SSW 2 6 1 3 1018.5 1018.5 5.0
02/01:30am 20.8 24.3 19.6 93 0.8 CALM 0 0 0 0 1018.7 1018.7 5.0
02/01:00am 20.8 23.1 19.8 94 0.6 WSW 7 9 4 5 1019.0 1019.0 4.6
02/12:41am 20.8 23.0 19.6 93 0.8 NW 7 9 4 5 1019.4 1019.4 4.0
02/12:30am 20.9 23.3 19.6 92 0.8 N 6 7 3 4 1019.4 1019.4 3.2
02/12:25am 20.8 23.0 19.3 91 0.9 NNE 6 9 3 5 1019.5 1019.5 3.0
02/12:12am 21.1 22.5 19.6 91 1.0 NE 11 17 6 9 1019.6 1019.6 2.2
02/12:00am 21.1 23.7 20.1 94 0.6 SSW 6 9 3 5 1019.6 1019.6 0.6
 
Date/Time
EDT
Temp
°C
App
Temp
°C
Dew
Point
°C
Rel
Hum
%
Delta-T
°C
Wind Press
QNH
hPa
Press
MSL
hPa
Rain since
9am
mm
Dir  Spd
km/h
Gust
km/h
Spd
kts
Gust
kts
01/11:30pm 21.4 24.1 20.2 93 0.8 SSE 6 7 3 4 1019.5 1019.5 0.6
01/11:00pm 21.7 23.7 20.0 90 1.1 SSE 9 13 5 7 1019.8 1019.8 0.4
01/10:30pm 21.5 23.8 19.8 90 1.1 SSW 7 9 4 5 1019.7 1019.7 0.4
01/10:00pm 21.2 23.4 19.3 89 1.2 SSE 6 7 3 4 1019.9 1019.9 0.4
01/09:30pm 22.1 24.3 19.5 85 1.7 SE 7 9 4 5 1020.1 1020.1 0.4
01/09:00pm 22.6 24.4 19.6 83 1.9 SE 9 13 5 7 1019.8 1019.8 0.4
01/08:30pm 22.9 24.4 19.7 82 2.1 SE 11 13 6 7 1019.7 1019.7 0.4
01/08:00pm 22.9 24.8 19.7 82 2.0 SSE 9 13 5 7 1019.3 1019.3 0.4
01/07:30pm 23.3 24.4 19.7 80 2.3 SE 13 20 7 11 1019.1 1019.1 0.4
01/07:00pm 23.6 24.3 19.7 79 2.5 SE 15 19 8 10 1018.8 1018.8 0.4
01/06:30pm 23.9 24.8 20.0 79 2.5 SE 15 19 8 10 1018.7 1018.7 0.4
01/06:00pm 23.8 24.4 19.5 77 2.8 ESE 15 19 8 10 1018.5 1018.5 0.4
01/05:30pm 24.0 23.8 19.3 75 3.0 SE 19 24 10 13 1018.8 1018.8 0.4
01/05:00pm 24.4 23.7 18.3 69 3.8 ESE 19 22 10 12 1018.5 1018.5 0.4
01/04:30pm 24.9 24.3 18.8 69 3.9 SE 20 30 11 16 1018.7 1018.7 0.4
01/04:00pm 24.6 23.0 18.3 68 4.0 ESE 24 33 13 18 1019.2 1019.2 0.4
01/03:30pm 25.0 23.5 19.4 71 3.6 SE 26 33 14 18 1019.4 1019.4 0.4
01/03:00pm 23.2 22.6 20.5 85 1.7 ESE 24 33 13 18 1019.7 1019.7 0.4
01/02:30pm 25.8 25.5 19.2 67 4.2 SE 19 28 10 15 1019.7 1019.7 0.4
01/02:00pm 23.5 23.0 19.2 77 2.7 ESE 20 30 11 16 1019.7 1019.7 0.4
01/01:30pm 24.1 24.7 20.2 79 2.5 ENE 17 22 9 12 1019.6 1019.6 0.4
01/01:00pm 25.2 24.1 18.6 67 4.2 E 22 32 12 17 1019.7 1019.7 0.4
01/12:30pm 25.2 25.3 19.1 69 3.9 ESE 17 24 9 13 1019.8 1019.8 0.4
01/12:00pm 24.1 26.1 20.0 78 2.6 SSE 9 19 5 10 1020.4 1020.4 0.4
01/11:30am 23.1 25.7 20.1 83 1.9 S 6 9 3 5 1020.8 1020.8 0.4
01/11:00am 22.5 24.1 20.0 86 1.6 SSE 11 13 6 7 1020.8 1020.8 0.4
01/10:30am 21.9 23.7 19.5 86 1.5 SE 9 13 5 7 1021.1 1021.1 0.2
01/10:00am 21.4 23.6 19.3 88 1.3 ENE 6 11 3 6 1021.3 1021.3 0.2
01/09:30am 21.0 22.0 19.5 91 1.0 E 13 17 7 9 1021.3 1021.3 0.2
01/09:02am 20.4 22.0 19.1 92 0.8 ENE 9 13 5 7 1021.3 1021.3 0.0
01/09:00am 20.5 22.2 19.3 93 0.8 ENE 9 13 5 7 1021.3 1021.3 23.2
01/08:30am 20.2 20.3 18.3 89 1.2 ENE 15 28 8 15 1021.1 1021.1 19.8
01/08:28am 20.3 20.7 18.2 88 1.3 ENE 13 28 7 15 1021.1 1021.1 19.6
01/08:00am 21.8 23.9 20.1 90 1.1 ESE 9 13 5 7 1020.6 1020.6 18.4
01/07:30am 21.2 22.4 20.0 93 0.8 SSE 13 15 7 8 1020.6 1020.6 18.4
01/07:00am 20.6 21.3 19.6 94 0.6 SSE 15 19 8 10 1020.2 1020.2 18.0
01/06:58am 20.5 21.1 19.5 94 0.6 SSE 15 19 8 10 1020.2 1020.2 18.0
01/06:41am 20.8 21.1 19.6 93 0.8 E 17 22 9 12 1020.2 1020.2 16.6
01/06:30am 21.2 22.7 19.7 91 1.0 E 11 17 6 9 1020.2 1020.2 14.8
01/06:06am 21.0 23.7 20.2 95 0.5 SW 6 7 3 4 1020.1 1020.1 12.2
01/06:00am 20.9 23.4 19.9 94 0.6 SW 6 7 3 4 1019.9 1019.9 10.6
01/05:47am 20.9 24.6 19.9 94 0.6 CALM 0 4 0 2 1019.7 1019.7 10.6
01/05:30am 20.8 23.4 20.0 95 0.5 SSW 6 7 3 4 1019.6 1019.6 10.6
01/05:27am 20.8 23.8 20.0 95 0.5 SSW 4 7 2 4 1019.6 1019.6 10.6
01/05:00am 20.6 22.8 19.6 94 0.6 S 7 9 4 5 1019.5 1019.5 10.6
01/04:30am 20.5 24.0 19.5 94 0.6 CALM 0 0 0 0 1019.5 1019.5 10.6
01/04:00am 20.4 22.6 19.2 93 0.8 SSW 6 7 3 4 1019.6 1019.6 10.6
01/03:30am 20.3 22.5 19.1 93 0.8 SSW 6 9 3 5 1020.1 1020.1 10.6
01/03:00am 20.4 23.7 19.2 93 0.8 CALM 0 0 0 0 1020.3 1020.3 10.4
01/02:30am 20.2 21.7 18.9 92 0.8 SSW 9 11 5 6 1020.7 1020.7 10.4
01/02:00am 20.1 23.1 18.4 90 1.1 CALM 0 9 0 5 1020.9 1020.9 10.0
01/01:30am 20.4 22.2 18.7 90 1.1 SSW 7 9 4 5 1020.9 1020.9 10.0
01/01:00am 20.6 22.6 19.1 91 0.9 SSW 7 9 4 5 1021.3 1021.3 10.0
01/12:30am 20.7 22.3 19.2 91 0.9 SSW 9 11 5 6 1021.4 1021.4 10.0
01/12:00am 20.4 21.8 18.7 90 1.1 SSW 9 11 5 6 1021.8 1021.8 10.0
 
Date/Time
EDT
Temp
°C
App
Temp
°C
Dew
Point
°C
Rel
Hum
%
Delta-T
°C
Wind Press
QNH
hPa
Press
MSL
hPa
Rain since
9am
mm
Dir  Spd
km/h
Gust
km/h
Spd
kts
Gust
kts
28/11:30pm 20.5 21.9 18.6 89 1.2 SSW 9 11 5 6 1021.9 1021.9 10.0
28/11:00pm 20.9 22.2 18.5 86 1.5 SSW 9 11 5 6 1022.4 1022.4 10.0
28/10:30pm 21.4 22.6 19.0 86 1.5 S 11 13 6 7 1022.4 1022.4 10.0
28/10:00pm 21.5 23.4 18.9 85 1.6 S 7 9 4 5 1022.7 1022.7 10.0
28/09:30pm 21.7 23.0 18.5 82 2.0 S 9 11 5 6 1022.6 1022.6 10.0
28/09:00pm 23.1 24.3 19.1 78 2.5 SE 11 13 6 7 1022.5 1022.5 10.0
28/08:30pm 23.1 23.3 18.6 76 2.8 SE 15 17 8 9 1022.2 1022.2 10.0
28/08:00pm 23.7 23.6 18.8 74 3.1 SE 17 22 9 12 1022.3 1022.3 10.0
28/07:30pm 23.9 23.3 18.5 72 3.4 ESE 19 24 10 13 1021.9 1021.9 10.0
28/07:00pm 24.5 23.6 17.7 66 4.2 E 19 24 10 13 1021.6 1021.6 10.0
28/06:30pm 24.6 23.3 19.0 71 3.6 SE 24 33 13 18 1021.3 1021.3 10.0
28/06:00pm 24.9 24.7 19.7 73 3.3 ESE 20 28 11 15 1021.2 1021.2 10.0
28/05:30pm 24.8 24.6 17.5 64 4.6 ENE 15 24 8 13 1021.2 1021.2 10.0
28/05:00pm 23.6 23.7 18.3 72 3.3 E 15 24 8 13 1021.4 1021.4 10.0
28/04:44pm 22.3 22.3 18.1 77 2.6 ENE 15 19 8 10 1021.4 1021.4 10.0
28/04:30pm 22.0 22.0 19.0 83 1.9 ENE 17 35 9 19 1021.5 1021.5 10.0
28/04:24pm 22.2 20.5 18.2 78 2.5 ENE 24 37 13 20 1021.6 1021.6 8.6
28/04:00pm 26.2 25.1 18.6 63 4.8 ESE 22 33 12 18 1021.0 1021.0 5.8
28/03:30pm 26.0 24.8 17.4 59 5.4 ENE 20 28 11 15 1021.2 1021.2 5.8
28/03:00pm 24.6 23.7 18.1 67 4.1 ENE 20 30 11 16 1021.3 1021.3 5.8
28/02:30pm 26.5 25.1 17.0 56 5.9 ENE 20 32 11 17 1021.3 1021.3 5.8
28/02:00pm 25.8 24.9 16.9 58 5.5 E 17 28 9 15 1021.7 1021.7 5.8
28/01:30pm 25.9 25.0 18.1 62 4.9 E 20 33 11 18 1021.9 1021.9 5.6
28/01:00pm 25.1 24.2 18.1 65 4.4 ENE 20 26 11 14 1022.1 1022.1 5.6
28/12:30pm 25.3 24.5 18.5 66 4.3 ENE 20 28 11 15 1022.2 1022.2 5.6
28/12:00pm 24.4 23.9 19.0 72 3.4 ENE 20 30 11 16 1022.5 1022.5 5.6
28/11:54am 23.9 23.6 19.2 75 3.0 E 19 28 10 15 1022.7 1022.7 5.6
28/11:37am 22.2 21.4 19.2 83 1.9 E 22 32 12 17 1023.0 1023.0 5.6
28/11:30am 23.6 22.4 19.3 77 2.7 ESE 24 32 13 17 1022.8 1022.8 2.6
28/11:00am 24.3 24.7 18.9 72 3.4 ENE 15 20 8 11 1022.9 1022.9 2.6
28/10:30am 24.2 25.9 18.6 71 3.5 E 7 19 4 10 1022.9 1022.9 2.6
28/10:00am 22.7 25.4 20.2 86 1.6 SW 6 9 3 5 1022.9 1022.9 2.6
28/09:44am 22.4 24.9 19.8 85 1.7 SSW 6 9 3 5 1023.0 1023.0 2.6
28/09:30am 22.1 24.7 20.4 90 1.1 SW 7 11 4 6 1022.9 1022.9 2.6
28/09:26am 21.9 24.0 20.2 90 1.1 SW 9 11 5 6 1022.9 1022.9 2.4
28/09:00am 22.0 25.2 19.7 87 1.5 N 2 9 1 5 1022.9 1022.9 5.4
28/08:50am 21.4 24.1 19.5 89 1.2 N 4 9 2 5 1022.9 1022.9 5.4
28/08:30am 20.5 21.4 18.4 88 1.3 NE 11 22 6 12 1022.9 1022.9 4.6
28/08:27am 20.7 22.0 19.4 92 0.8 NE 11 22 6 12 1023.0 1023.0 4.2
28/08:00am 20.5 23.8 19.2 92 0.8 CALM 0 0 0 0 1022.6 1022.6 3.4
28/07:30am 19.8 21.9 19.0 95 0.5 N 6 13 3 7 1022.5 1022.5 3.4
28/07:00am 19.3 22.3 18.5 95 0.5 CALM 0 0 0 0 1022.1 1022.1 3.4
28/06:30am 18.8 21.6 18.0 95 0.5 CALM 0 0 0 0 1021.8 1021.8 3.4
28/06:00am 19.1 21.7 18.3 95 0.5 W 2 6 1 3 1021.7 1021.7 3.4
28/05:30am 19.0 21.8 18.0 94 0.6 CALM 0 0 0 0 1021.7 1021.7 3.4
28/05:00am 19.1 21.7 18.3 95 0.5 W 2 6 1 3 1021.5 1021.5 3.4
28/04:47am 19.1 20.9 18.3 95 0.5 W 6 9 3 5 1021.5 1021.5 3.2
28/04:30am 18.9 21.0 18.1 95 0.5 W 4 11 2 6 1021.4 1021.4 3.0
28/04:25am 18.8 21.1 17.8 94 0.6 W 2 7 1 4 1021.4 1021.4 1.6
28/04:00am 18.6 21.2 17.6 94 0.6 CALM 0 0 0 0 1021.5 1021.5 0.2
28/03:30am 18.7 20.5 17.5 93 0.7 W 4 7 2 4 1021.7 1021.7 0.2
28/03:00am 18.9 20.5 17.9 94 0.6 W 6 7 3 4 1021.8 1021.8 0.2
28/02:30am 18.7 20.5 17.4 92 0.8 W 4 7 2 4 1022.3 1022.3 0.2
28/02:00am 18.8 20.0 17.3 91 0.9 SSW 7 9 4 5 1022.5 1022.5 0.2
28/01:30am 19.3 21.9 17.4 89 1.2 CALM 0 0 0 0 1023.0 1023.0 0.2
28/01:00am 18.8 20.0 16.8 88 1.2 SSW 6 7 3 4 1023.0 1023.0 0.2
28/12:30am 19.2 21.6 17.0 87 1.3 CALM 0 0 0 0 1023.2 1023.2 0.2
28/12:00am 19.2 21.5 16.8 86 1.4 CALM 0 0 0 0 1023.4 1023.4 0.2
 
Date/Time
EDT
Temp
°C
App
Temp
°C
Dew
Point
°C
Rel
Hum
%
Delta-T
°C
Wind Press
QNH
hPa
Press
MSL
hPa
Rain since
9am
mm
Dir  Spd
km/h
Gust
km/h
Spd
kts
Gust
kts
27/11:30pm 19.3 20.4 16.7 85 1.6 SSW 6 9 3 5 1023.5 1023.5 0.2
27/11:00pm 19.5 20.4 16.2 81 2.0 S 6 9 3 5 1023.6 1023.6 0.2
27/10:30pm 19.7 20.6 16.0 79 2.2 S 6 7 3 4 1023.6 1023.6 0.2
27/10:00pm 20.1 20.7 15.9 77 2.5 SSW 7 9 4 5 1023.5 1023.5 0.2
27/09:30pm 20.3 21.1 15.9 76 2.6 SSW 6 9 3 5 1023.5 1023.5 0.2
27/09:00pm 20.6 20.9 16.0 75 2.7 S 9 13 5 7 1023.4 1023.4 0.2
27/08:30pm 20.9 20.5 16.3 75 2.8 S 13 19 7 10 1023.1 1023.1 0.2
27/08:00pm 21.5 20.3 16.2 72 3.2 S 17 20 9 11 1023.0 1023.0 0.2
27/07:30pm 22.2 20.3 15.3 65 4.1 S 19 26 10 14 1022.9 1022.9 0.2
27/07:00pm 23.4 21.0 15.5 61 4.7 SSE 22 30 12 16 1022.7 1022.7 0.2
27/06:30pm 24.1 22.0 15.3 58 5.3 SSE 20 26 11 14 1022.5 1022.5 0.2
27/06:00pm 24.7 20.9 14.8 54 5.9 SSE 28 35 15 19 1022.4 1022.4 0.2
27/05:30pm 25.6 22.8 15.3 53 6.2 SSE 24 33 13 18 1022.3 1022.3 0.2
27/05:00pm 25.6 22.5 14.4 50 6.6 SE 24 39 13 21 1022.4 1022.4 0.2
27/04:30pm 25.9 22.3 15.3 52 6.4 SSE 28 37 15 20 1022.4 1022.4 0.2
27/04:00pm 25.8 21.8 14.0 48 7.0 SSE 28 37 15 20 1022.5 1022.5 0.2
27/03:30pm 26.1 21.7 14.2 48 7.1 SE 30 43 16 23 1022.6 1022.6 0.2
27/03:07pm 25.5 20.7 14.0 49 6.8 SE 32 56 17 30 1022.8 1022.8 0.2
27/03:00pm 26.2 22.7 15.6 52 6.4 SE 28 35 15 19 1022.9 1022.9 0.2
27/02:30pm 25.5 22.2 14.9 52 6.4 SE 26 41 14 22 1023.2 1023.2 0.2
27/02:00pm 25.6 22.5 14.4 50 6.6 SE 24 35 13 19 1023.4 1023.4 0.2
27/01:30pm 26.3 23.0 15.0 49 6.8 ESE 26 35 14 19 1023.4 1023.4 0.2
27/01:00pm 25.7 22.0 15.1 52 6.4 ESE 28 43 15 23 1023.6 1023.6 0.2
27/12:30pm 25.4 22.5 15.1 53 6.2 ESE 24 39 13 21 1023.8 1023.8 0.0
27/12:00pm 25.4 22.7 15.7 55 5.9 SE 24 33 13 18 1024.1 1024.1 0.0
27/11:30am 25.0 21.9 15.6 56 5.7 SE 26 35 14 19 1024.4 1024.4 0.0
27/11:00am 24.9 22.4 16.1 58 5.3 ESE 24 33 13 18 1024.5 1024.5 0.0
27/10:30am 24.3 22.2 16.3 61 4.9 SE 22 28 12 15 1024.4 1024.4 0.0
27/10:00am 23.9 22.4 16.7 64 4.4 ESE 20 28 11 15 1024.6 1024.6 0.0
27/09:30am 23.4 21.9 16.2 64 4.4 ESE 19 26 10 14 1024.5 1024.5 0.0
27/09:00am 22.9 22.0 16.9 69 3.7 ESE 17 22 9 12 1024.1 1024.1 6.0
27/08:30am 22.6 23.8 18.2 76 2.8 SSE 9 19 5 10 1023.9 1023.9 6.0
27/08:00am 19.4 21.5 18.1 92 0.8 S 4 7 2 4 1023.5 1023.5 6.0
27/07:30am 18.2 20.7 17.2 94 0.6 CALM 0 0 0 0 1023.3 1023.3 6.0
27/07:00am 18.0 20.5 17.2 95 0.5 CALM 0 0 0 0 1023.0 1023.0 6.0
27/06:30am 17.9 20.0 17.1 95 0.5 S 2 6 1 3 1022.8 1022.8 6.0
27/06:00am 17.7 18.9 16.9 95 0.5 S 6 7 3 4 1022.6 1022.6 6.0
27/05:30am 17.8 20.2 17.0 95 0.5 CALM 0 0 0 0 1022.4 1022.4 6.0
27/05:00am 17.4 19.6 16.6 95 0.5 CALM 0 0 0 0 1022.0 1022.0 6.0

Other Formats:

Comma delimited format used in spreadsheet applications
http://www.bom.gov.au/fwo/IDN60801/IDN60801.94765.axf

JavaScript Object Notation format (JSON) in row-major order
http://www.bom.gov.au/fwo/IDN60801/IDN60801.94765.json